Time;durP1;ratioP1;P1;durP2;ratioP2;P2;SDS_P1;SDS_P2;PMS_P1;PMS_P2;Temp;Humidity;BMP_temperature;BMP_pressure;BME280_temperature;BME280_humidity;BME280_pressure;Samples;Min_cycle;Max_cycle;Signal;HPM_P1;HPM_P2
2023/05/12 00:01:56;;;;;;;21.88;9.80;;;;;;;10.80;80.86;150006.69;5064185;28;20351;-67
2023/05/12 00:04:22;;;;;;;19.58;9.13;;;;;;;10.85;80.66;150019.53;5064029;28;20025;-69
2023/05/12 00:06:47;;;;;;;14.95;8.60;;;;;;;10.79;81.11;150005.44;5063743;28;20094;-69
2023/05/12 00:09:13;;;;;;;15.35;8.40;;;;;;;10.79;80.34;150005.44;5064663;28;20040;-70
2023/05/12 00:11:39;;;;;;;17.73;9.15;;;;;;;10.82;80.34;150013.13;5064069;28;20293;-68
2023/05/12 00:14:05;;;;;;;20.92;8.35;;;;;;;10.82;80.29;150011.84;5064278;28;20025;-69
2023/05/12 00:16:31;;;;;;;17.42;8.70;;;;;;;10.85;79.95;150020.81;5063650;28;20098;-69
2023/05/12 00:18:56;;;;;;;17.38;8.80;;;;;;;10.83;80.31;150015.69;5063905;28;20313;-69
2023/05/12 00:21:22;;;;;;;13.63;8.63;;;;;;;10.83;80.31;150014.38;5064130;28;20031;-69
2023/05/12 00:23:48;;;;;;;14.43;8.27;;;;;;;10.80;80.71;150006.69;5064107;28;20178;-69
2023/05/12 00:26:13;;;;;;;17.23;9.00;;;;;;;10.77;80.55;150000.28;5063801;28;20041;-69
2023/05/12 00:28:39;;;;;;;20.05;8.73;;;;;;;10.74;80.53;149992.59;5037564;28;20067;-68
2023/05/12 00:31:04;;;;;;;17.23;8.25;;;;;;;10.70;80.36;149983.63;5045915;28;20037;-68
2023/05/12 00:33:30;;;;;;;17.20;8.77;;;;;;;10.73;79.91;149990.06;5025692;28;20053;-68
2023/05/12 00:35:59;;;;;;;19.08;8.77;;;;;;;10.73;80.38;149990.06;5062862;28;20036;-69
2023/05/12 00:38:25;;;;;;;18.00;8.20;;;;;;;10.37;79.94;149900.25;5049150;28;20030;-69
2023/05/12 00:40:50;;;;;;;17.85;8.90;;;;;;;10.64;80.01;149966.94;5063869;28;20051;-69
2023/05/12 00:43:16;;;;;;;17.17;8.88;;;;;;;10.63;80.65;149964.38;5063764;28;20033;-70
2023/05/12 00:45:43;;;;;;;16.35;8.30;;;;;;;10.62;80.74;149961.84;5062882;28;20025;-70
2023/05/12 00:48:09;;;;;;;28.63;9.73;;;;;;;10.46;80.48;149922.03;5043772;28;20075;-69
2023/05/12 00:50:35;;;;;;;17.45;9.27;;;;;;;10.51;81.07;149936.16;5058923;28;20087;-68
2023/05/12 00:53:00;;;;;;;19.17;9.38;;;;;;;10.50;80.86;149933.63;5063969;28;20028;-68
2023/05/12 00:55:28;;;;;;;21.15;10.45;;;;;;;10.42;81.10;149913.09;5063270;28;20025;-69
2023/05/12 00:57:54;;;;;;;20.70;9.75;;;;;;;10.44;80.74;149918.19;5079207;28;20037;-68
2023/05/12 01:00:21;;;;;;;16.88;9.82;;;;;;;10.45;80.13;149919.50;5062698;28;20025;-68
2023/05/12 01:02:47;;;;;;;22.80;9.85;;;;;;;10.38;80.92;149901.56;5064088;28;20032;-67
2023/05/12 01:05:13;;;;;;;22.02;9.88;;;;;;;10.40;80.55;149907.94;5072040;28;20045;-67
2023/05/12 01:07:39;;;;;;;21.38;10.77;;;;;;;10.39;80.80;149905.41;5057207;28;20082;-68
2023/05/12 01:10:19;;;;;;;25.35;10.60;;;;;;;10.26;80.35;149872.00;5050779;28;20045;-67
2023/05/12 01:12:45;;;;;;;18.23;9.40;;;;;;;10.35;81.10;149896.41;5063310;28;20043;-69
2023/05/12 01:15:11;;;;;;;21.80;10.13;;;;;;;10.34;80.62;149893.81;5043325;28;20021;-68
2023/05/12 01:17:41;;;;;;;17.75;9.23;;;;;;;10.35;80.78;149896.41;5045578;28;20041;-67
2023/05/12 01:20:10;;;;;;;13.70;8.68;;;;;;;10.31;80.67;149884.81;5054902;28;20052;-68
2023/05/12 01:22:37;;;;;;;17.50;9.10;;;;;;;10.28;80.70;149878.41;5054772;28;20119;-68
2023/05/12 01:25:04;;;;;;;20.25;9.45;;;;;;;10.25;80.97;149869.47;5045888;28;20344;-68
2023/05/12 01:27:30;;;;;;;15.05;9.15;;;;;;;10.19;80.76;149856.63;5062535;28;20084;-68
2023/05/12 01:29:59;;;;;;;18.15;9.18;;;;;;;10.08;80.42;149827.16;5062830;28;20024;-67
2023/05/12 01:32:25;;;;;;;18.98;9.43;;;;;;;10.15;80.57;149845.09;5048081;28;20025;-67
2023/05/12 01:34:51;;;;;;;17.90;9.02;;;;;;;10.02;81.33;149813.03;5052387;28;20029;-65
2023/05/12 01:37:17;;;;;;;16.80;9.10;;;;;;;10.10;80.60;149833.53;5057659;28;20059;-66
2023/05/12 01:39:43;;;;;;;17.73;9.25;;;;;;;10.07;80.74;149825.84;5053147;28;20296;-65
2023/05/12 01:42:09;;;;;;;17.23;9.02;;;;;;;10.03;81.17;149815.56;5062345;28;20036;-66
2023/05/12 01:44:35;;;;;;;17.85;8.57;;;;;;;10.02;81.28;149813.03;5062575;28;20029;-66
2023/05/12 01:47:01;;;;;;;15.15;8.88;;;;;;;10.04;80.95;149816.88;5061558;28;20155;-68
2023/05/12 01:49:26;;;;;;;15.57;8.40;;;;;;;9.99;81.08;149805.31;5056358;28;20025;-66
2023/05/12 01:51:52;;;;;;;14.95;8.68;;;;;;;10.03;81.51;149815.56;5053384;28;20081;-67
2023/05/12 01:54:18;;;;;;;13.70;8.65;;;;;;;9.98;80.60;149802.78;5042326;28;20048;-68
2023/05/12 01:56:43;;;;;;;14.77;9.02;;;;;;;9.98;80.62;149802.78;5058636;28;20222;-68
2023/05/12 01:59:09;;;;;;;16.33;8.68;;;;;;;9.97;81.62;149800.22;5050215;28;20029;-68
2023/05/12 02:01:35;;;;;;;15.25;9.25;;;;;;;9.95;80.68;149795.09;5051690;28;20131;-66
2023/05/12 02:04:03;;;;;;;19.88;9.30;;;;;;;9.92;81.83;149788.69;5062158;28;20029;-67
2023/05/12 02:06:30;;;;;;;14.57;8.73;;;;;;;9.90;81.68;149782.28;5061596;28;20091;-67
2023/05/12 02:08:56;;;;;;;17.42;8.73;;;;;;;9.82;82.23;149763.06;5044094;28;20102;-67
2023/05/12 02:11:22;;;;;;;14.15;8.73;;;;;;;9.88;81.78;149777.16;5056385;28;20218;-67
2023/05/12 02:13:47;;;;;;;16.15;8.48;;;;;;;9.91;82.24;149786.09;5053093;28;20029;-67
2023/05/12 02:16:13;;;;;;;17.88;9.07;;;;;;;9.91;82.15;149786.09;5049272;28;20329;-67
2023/05/12 02:18:39;;;;;;;18.77;8.32;;;;;;;9.96;81.36;149798.94;5061955;28;20085;-66
2023/05/12 02:21:24;;;;;;;16.33;9.18;;;;;;;10.00;81.70;149809.22;5047312;28;20029;-67
2023/05/12 02:23:50;;;;;;;19.40;8.70;;;;;;;9.96;81.77;149798.94;5061982;28;20049;-67
2023/05/12 02:26:16;;;;;;;12.85;8.43;;;;;;;10.02;82.25;149814.31;5060759;28;20040;-67
2023/05/12 02:28:42;;;;;;;13.23;7.97;;;;;;;10.18;81.87;149852.78;5053825;28;20029;-66
2023/05/12 02:31:07;;;;;;;17.10;9.07;;;;;;;10.65;80.29;149969.53;5030588;28;20044;-66
2023/05/12 02:33:33;;;;;;;13.02;8.32;;;;;;;10.73;79.64;149988.75;5061935;28;20100;-66
2023/05/12 02:35:59;;;;;;;16.25;8.75;;;;;;;10.75;79.24;149995.16;5061640;28;20029;-66
2023/05/12 02:38:24;;;;;;;15.35;8.25;;;;;;;10.97;78.32;150049.03;5061768;28;20067;-66
2023/05/12 02:40:50;;;;;;;14.48;8.50;;;;;;;10.93;78.96;150040.06;5067579;28;20020;-67
2023/05/12 02:43:15;;;;;;;17.77;9.50;;;;;;;10.87;78.92;150025.97;5057384;28;20028;-67
2023/05/12 02:45:41;;;;;;;16.20;10.35;;;;;;;10.86;79.59;150022.13;5034410;28;20037;-67
2023/05/12 02:48:07;;;;;;;14.02;9.10;;;;;;;10.82;79.99;150013.13;5042286;28;20029;-67
2023/05/12 02:50:32;;;;;;;13.65;8.75;;;;;;;10.96;79.38;150047.75;5055769;28;20096;-66
2023/05/12 02:52:58;;;;;;;15.68;8.80;;;;;;;11.00;79.14;150056.72;5061038;28;20025;-67
2023/05/12 02:55:23;;;;;;;17.15;8.52;;;;;;;11.05;79.08;150070.81;5061197;28;20049;-68
2023/05/12 02:57:49;;;;;;;19.60;8.15;;;;;;;11.08;79.52;150076.00;5045646;28;20024;-66
2023/05/12 03:00:15;;;;;;;19.10;8.75;;;;;;;11.13;79.08;150090.09;5045258;28;20088;-67
2023/05/12 03:02:40;;;;;;;17.17;8.82;;;;;;;11.20;79.28;150108.06;5063690;28;20102;-67
2023/05/12 03:05:08;;;;;;;13.52;9.70;;;;;;;11.30;78.95;150131.13;5065557;28;20049;-67
2023/05/12 03:07:33;;;;;;;17.73;10.20;;;;;;;11.42;78.24;150161.94;5057933;28;20040;-68
2023/05/12 03:10:00;;;;;;;16.98;10.27;;;;;;;11.52;78.35;150186.34;5048406;28;20020;-68
2023/05/12 03:12:28;;;;;;;20.38;10.18;;;;;;;11.65;77.75;150218.41;5064836;28;20052;-66
2023/05/12 03:14:53;;;;;;;18.60;9.10;;;;;;;11.86;77.23;150271.06;5048034;28;20176;-65
2023/05/12 03:17:20;;;;;;;13.68;8.32;;;;;;;11.97;77.30;150298.03;5061422;28;20032;-66
2023/05/12 03:19:46;;;;;;;15.20;8.23;;;;;;;12.14;75.93;150340.41;5065448;28;20032;-66
2023/05/12 03:22:12;;;;;;;13.23;8.15;;;;;;;12.26;75.39;150372.50;5061793;28;20042;-66
2023/05/12 03:24:37;;;;;;;13.82;7.90;;;;;;;12.45;75.37;150418.72;5045102;28;20022;-68
2023/05/12 03:27:03;;;;;;;11.55;7.70;;;;;;;12.59;74.27;150454.69;5062677;28;20636;-69
2023/05/12 03:29:29;;;;;;;14.77;7.60;;;;;;;12.75;70.73;150493.22;5051198;28;20066;-68
2023/05/12 03:31:54;;;;;;;12.02;7.32;;;;;;;12.98;73.01;150551.03;5057679;28;20028;-68
2023/05/12 03:34:20;;;;;;;10.65;6.20;;;;;;;13.12;69.03;150587.06;5064806;28;20027;-68
2023/05/12 03:36:45;;;;;;;13.15;6.70;;;;;;;13.31;68.71;150633.31;5064706;28;20036;-67
2023/05/12 03:39:11;;;;;;;13.77;6.70;;;;;;;13.40;66.01;150656.47;5047282;28;20029;-67
2023/05/12 03:41:37;;;;;;;12.95;5.85;;;;;;;13.72;63.80;150734.88;5069747;28;20028;-69
2023/05/12 03:44:13;;;;;;;7.93;5.18;;;;;;;13.93;61.07;150787.59;5054554;28;20025;-68
2023/05/12 03:46:38;;;;;;;10.00;5.75;;;;;;;14.02;60.15;150809.44;5056075;28;20036;-68
2023/05/12 03:49:04;;;;;;;9.82;5.35;;;;;;;14.25;59.91;150867.28;5046817;28;20025;-68
2023/05/12 03:51:30;;;;;;;8.02;5.22;;;;;;;14.46;59.78;150920.03;5064467;28;20029;-67
2023/05/12 03:53:55;;;;;;;9.98;5.45;;;;;;;14.48;57.76;150925.19;5047191;28;20021;-66
2023/05/12 03:56:21;;;;;;;11.48;5.45;;;;;;;14.52;57.21;150934.19;5056825;28;20045;-69
2023/05/12 03:58:47;;;;;;;8.07;5.10;;;;;;;14.62;58.04;150959.94;5056794;28;20206;-68
2023/05/12 04:01:14;;;;;;;8.40;5.22;;;;;;;14.66;58.84;150971.56;5051536;28;20032;-66
2023/05/12 04:03:40;;;;;;;7.25;4.90;;;;;;;14.65;57.75;150968.97;5064380;28;20032;-66
2023/05/12 04:06:06;;;;;;;11.18;4.75;;;;;;;14.77;57.93;150997.28;5063996;28;20041;-67
2023/05/12 04:08:33;;;;;;;7.18;4.28;;;;;;;14.78;56.94;150999.84;5048800;28;20057;-65
2023/05/12 04:11:00;;;;;;;6.45;4.53;;;;;;;14.79;55.82;151003.72;5055610;28;20098;-66
2023/05/12 04:13:27;;;;;;;6.53;4.18;;;;;;;14.95;54.90;151042.28;5059409;28;20030;-66
2023/05/12 04:15:57;;;;;;;7.38;3.88;;;;;;;14.98;53.01;151051.31;5048249;28;20114;-66
2023/05/12 04:18:23;;;;;;;8.32;4.10;;;;;;;15.02;54.11;151060.28;5063881;28;20033;-65
2023/05/12 04:20:48;;;;;;;9.40;4.18;;;;;;;15.10;53.62;151080.88;5063911;28;20084;-67
2023/05/12 04:23:14;;;;;;;7.80;4.55;;;;;;;15.24;54.46;151114.38;5052551;28;20021;-67
2023/05/12 04:25:41;;;;;;;7.68;4.70;;;;;;;15.25;53.59;151118.22;5050200;28;20048;-66
2023/05/12 04:28:07;;;;;;;9.30;4.07;;;;;;;15.33;52.51;151137.50;5063788;28;20029;-66
2023/05/12 04:30:32;;;;;;;8.30;4.10;;;;;;;15.34;53.45;151141.38;5063421;28;20039;-66
2023/05/12 04:32:58;;;;;;;9.23;4.05;;;;;;;15.39;53.63;151153.00;5046562;28;20029;-67
2023/05/12 04:35:24;;;;;;;7.90;4.00;;;;;;;15.51;53.82;151182.56;5056286;28;20051;-67
2023/05/12 04:37:50;;;;;;;9.43;4.20;;;;;;;15.57;53.32;151196.75;5063559;28;20066;-67
2023/05/12 04:40:15;;;;;;;8.38;4.20;;;;;;;15.64;53.78;151216.03;5070834;28;20033;-67
2023/05/12 04:42:41;;;;;;;6.70;3.97;;;;;;;15.75;53.68;151243.06;5062471;28;20028;-66
2023/05/12 04:45:07;;;;;;;7.43;4.80;;;;;;;15.88;52.34;151275.31;5051074;28;20202;-67
2023/05/12 04:47:33;;;;;;;8.05;4.63;;;;;;;15.91;53.07;151283.03;5049423;28;20040;-67
2023/05/12 04:49:59;;;;;;;7.57;5.03;;;;;;;16.14;53.12;151339.69;5052286;28;20062;-66
2023/05/12 04:52:24;;;;;;;10.10;4.95;;;;;;;16.41;52.11;151406.66;5063013;28;20028;-66
2023/05/12 04:54:50;;;;;;;7.95;4.50;;;;;;;16.80;50.99;151505.88;5063262;28;20025;-67
2023/05/12 04:57:16;;;;;;;12.82;5.30;;;;;;;16.99;51.32;151552.28;5062658;28;20029;-67
2023/05/12 04:59:42;;;;;;;10.40;5.28;;;;;;;17.11;50.08;151583.19;5062619;28;20024;-67
2023/05/12 05:02:08;;;;;;;13.57;4.82;;;;;;;17.25;49.79;151618.00;5062225;28;20029;-67
2023/05/12 05:04:34;;;;;;;12.10;5.47;;;;;;;17.69;47.75;151727.56;5062682;28;20097;-66
2023/05/12 05:07:00;;;;;;;8.73;4.95;;;;;;;18.04;47.38;151816.59;5062986;28;20029;-67
2023/05/12 05:09:25;;;;;;;7.35;4.75;;;;;;;18.21;47.05;151859.16;5063154;28;20084;-67
2023/05/12 05:11:51;;;;;;;10.25;5.00;;;;;;;18.68;46.16;151975.22;5061816;28;20044;-67
2023/05/12 05:14:17;;;;;;;8.18;5.22;;;;;;;18.97;46.03;152048.81;5051649;28;20250;-66
2023/05/12 05:16:43;;;;;;;10.50;5.20;;;;;;;19.07;46.23;152074.63;5053587;28;20035;-68
2023/05/12 05:19:09;;;;;;;10.73;4.57;;;;;;;19.31;45.14;152133.94;5061822;28;20021;-67
2023/05/12 05:21:35;;;;;;;10.50;5.70;;;;;;;19.51;43.82;152184.31;5062654;28;20033;-67
2023/05/12 05:24:01;;;;;;;10.40;5.80;;;;;;;19.40;44.46;152155.94;5045258;28;20041;-67
2023/05/12 05:26:26;;;;;;;11.20;5.57;;;;;;;18.68;45.21;151975.22;5055066;28;20025;-67
2023/05/12 05:28:54;;;;;;;9.57;5.53;;;;;;;19.09;45.27;152078.47;5055002;28;20083;-67
2023/05/12 05:31:20;;;;;;;9.23;5.38;;;;;;;19.16;45.08;152095.28;5050249;28;20032;-67
2023/05/12 05:33:46;;;;;;;13.20;5.97;;;;;;;19.26;44.68;152121.06;5062580;28;20044;-66
2023/05/12 05:36:12;;;;;;;17.70;12.43;;;;;;;19.35;45.22;152144.28;5062252;28;20025;-67
2023/05/12 05:38:37;;;;;;;9.77;6.07;;;;;;;19.19;44.07;152104.28;5062164;28;20024;-67
2023/05/12 05:41:04;;;;;;;11.18;6.07;;;;;;;19.44;44.68;152167.53;5070005;28;20309;-66
2023/05/12 05:43:30;;;;;;;15.77;6.45;;;;;;;19.67;44.76;152225.59;5062183;28;20029;-67
2023/05/12 05:45:56;;;;;;;15.13;6.47;;;;;;;19.25;44.34;152118.47;5062430;28;20025;-67
2023/05/12 05:48:23;;;;;;;11.77;5.78;;;;;;;19.30;45.37;152132.66;5062577;28;20024;-66
2023/05/12 05:50:50;;;;;;;10.10;5.40;;;;;;;19.33;43.89;152139.13;5050444;28;20040;-66
2023/05/12 05:53:17;;;;;;;10.63;5.55;;;;;;;19.28;45.18;152126.22;5062412;28;20158;-67
2023/05/12 05:55:43;;;;;;;10.55;5.65;;;;;;;19.28;45.06;152126.22;5061998;28;20033;-67
2023/05/12 05:58:09;;;;;;;9.75;5.30;;;;;;;19.23;45.45;152114.59;5060871;28;20040;-66
2023/05/12 06:00:34;;;;;;;15.27;5.32;;;;;;;19.18;46.19;152100.41;5043644;28;20044;-66
2023/05/12 06:03:00;;;;;;;13.73;5.78;;;;;;;19.19;43.99;152103.00;5064627;28;20031;-68
2023/05/12 06:05:26;;;;;;;15.55;6.25;;;;;;;19.22;44.50;152112.00;5066507;28;20056;-68
2023/05/12 06:07:52;;;;;;;10.48;5.78;;;;;;;19.27;45.60;152124.94;5053239;28;20036;-68
2023/05/12 06:10:17;;;;;;;15.18;6.38;;;;;;;18.92;44.32;152037.16;5054091;28;20040;-68
2023/05/12 06:12:43;;;;;;;12.05;5.63;;;;;;;19.09;44.35;152078.47;5068767;28;20019;-67
2023/05/12 06:15:09;;;;;;;10.88;5.15;;;;;;;18.92;44.37;152037.16;5068249;28;20244;-67
2023/05/12 06:17:35;;;;;;;13.23;6.00;;;;;;;18.89;43.26;152029.44;5067197;28;20120;-67
2023/05/12 06:20:01;;;;;;;10.95;5.22;;;;;;;18.95;43.81;152043.63;5069984;28;20021;-68
2023/05/12 06:22:27;;;;;;;13.70;5.38;;;;;;;18.88;44.08;152026.84;5064087;28;20044;-68
2023/05/12 06:24:53;;;;;;;14.27;5.22;;;;;;;19.09;43.72;152078.47;5044215;28;20025;-67
2023/05/12 06:27:18;;;;;;;13.30;5.13;;;;;;;19.20;43.84;152106.88;5067867;28;20028;-68
2023/05/12 06:29:44;;;;;;;10.23;5.22;;;;;;;19.08;43.58;152077.22;5069767;28;20033;-68
2023/05/12 06:32:10;;;;;;;13.73;4.45;;;;;;;19.07;42.72;152074.63;5065959;28;20032;-68
2023/05/12 06:34:35;;;;;;;10.90;4.30;;;;;;;19.35;43.00;152144.28;5069431;28;20308;-67
2023/05/12 06:37:01;;;;;;;13.20;4.30;;;;;;;19.53;42.46;152189.47;5070076;28;20096;-66
2023/05/12 06:39:26;;;;;;;8.80;4.38;;;;;;;19.39;41.30;152153.34;5052635;28;20043;-67
2023/05/12 06:41:52;;;;;;;6.90;2.85;;;;;;;19.19;35.41;152104.28;5068208;28;20044;-68
2023/05/12 06:44:18;;;;;;;8.75;3.10;;;;;;;19.41;37.14;152158.47;5052574;28;20020;-67
2023/05/12 06:46:43;;;;;;;9.75;2.83;;;;;;;19.45;37.15;152170.13;5069112;28;20042;-66
2023/05/12 06:49:09;;;;;;;4.30;2.60;;;;;;;19.57;36.56;152199.81;5070511;28;20043;-68
2023/05/12 06:51:35;;;;;;;5.25;2.65;;;;;;;19.59;34.17;152203.66;5075467;28;20100;-66
2023/05/12 06:54:01;;;;;;;3.78;2.58;;;;;;;19.54;32.05;152190.75;5071660;28;20301;-67
2023/05/12 06:56:28;;;;;;;4.93;2.50;;;;;;;19.79;34.19;152254.06;5065341;28;20052;-67
2023/05/12 06:58:59;;;;;;;9.35;3.10;;;;;;;19.84;34.45;152267.00;5067147;28;20032;-68
2023/05/12 07:01:29;;;;;;;5.93;2.90;;;;;;;19.95;34.02;152295.41;5065996;28;20076;-68
2023/05/12 07:03:55;;;;;;;5.93;2.63;;;;;;;20.04;34.22;152317.34;5070759;28;20431;-69
2023/05/12 07:06:21;;;;;;;4.40;2.63;;;;;;;20.09;33.91;152330.22;5061887;28;20033;-69
2023/05/12 07:08:47;;;;;;;4.90;2.70;;;;;;;20.10;32.37;152332.81;5047274;28;20045;-68
2023/05/12 07:11:18;;;;;;;6.57;2.50;;;;;;;20.26;33.70;152372.84;5054603;28;20028;-68
2023/05/12 07:13:49;;;;;;;6.10;2.88;;;;;;;20.28;32.10;152376.72;5061201;28;20029;-68
2023/05/12 07:16:16;;;;;;;6.30;2.20;;;;;;;20.20;30.93;152356.09;5059796;28;20048;-70
2023/05/12 07:18:42;;;;;;;4.85;2.47;;;;;;;20.43;32.23;152415.47;5041681;28;20029;-68
2023/05/12 07:21:08;;;;;;;4.07;2.92;;;;;;;20.51;31.79;152436.13;5058545;28;20032;-69
2023/05/12 07:23:35;;;;;;;3.30;2.15;;;;;;;20.45;30.28;152420.66;5049001;28;20037;-69
2023/05/12 07:26:02;;;;;;;4.72;2.38;;;;;;;20.36;31.06;152397.38;5048923;28;20120;-70
2023/05/12 07:28:34;;;;;;;3.00;2.35;;;;;;;20.31;31.60;152385.78;5060919;28;20247;-69
2023/05/12 07:31:01;;;;;;;4.03;2.55;;;;;;;20.45;32.70;152419.34;5061021;28;20071;-68
2023/05/12 07:33:27;;;;;;;4.43;2.30;;;;;;;20.31;29.60;152385.78;5061206;28;20052;-68
2023/05/12 07:35:53;;;;;;;4.60;1.80;;;;;;;20.50;30.00;152433.53;5060955;28;20103;-68
2023/05/12 07:38:18;;;;;;;5.20;2.42;;;;;;;20.47;31.51;152424.53;5032776;28;20096;-69
2023/05/12 07:40:44;;;;;;;7.05;2.55;;;;;;;20.41;31.30;152409.00;5063415;28;20232;-70
2023/05/12 07:43:10;;;;;;;7.93;2.47;;;;;;;20.56;30.74;152447.75;5060897;28;20029;-69
2023/05/12 07:45:36;;;;;;;3.53;2.40;;;;;;;20.61;31.04;152459.41;5063142;28;20364;-68
2023/05/12 07:48:02;;;;;;;4.57;2.63;;;;;;;20.41;30.98;152410.31;5063860;28;20045;-69
2023/05/12 07:50:28;;;;;;;4.53;3.03;;;;;;;20.64;30.96;152467.16;5063832;28;20059;-69
2023/05/12 07:52:53;;;;;;;5.88;2.70;;;;;;;20.76;32.30;152496.91;5064864;28;20246;-70
2023/05/12 07:55:20;;;;;;;5.97;2.45;;;;;;;20.75;30.13;152495.63;5064460;28;20025;-70
2023/05/12 07:57:49;;;;;;;3.35;2.50;;;;;;;20.82;30.88;152512.38;5064660;28;20027;-70
2023/05/12 08:00:15;;;;;;;5.88;2.38;;;;;;;20.82;31.27;152512.38;5063910;28;20087;-68
2023/05/12 08:02:41;;;;;;;3.28;2.35;;;;;;;20.91;31.48;152534.34;5063828;28;20100;-67
2023/05/12 08:05:09;;;;;;;3.25;2.30;;;;;;;21.02;32.26;152564.09;5063991;28;20342;-69
2023/05/12 08:07:36;;;;;;;4.70;2.25;;;;;;;21.06;31.67;152573.09;5063230;28;20133;-68
2023/05/12 08:10:03;;;;;;;4.95;2.00;;;;;;;21.11;31.70;152584.78;5063964;28;20025;-68
2023/05/12 08:12:30;;;;;;;4.57;2.28;;;;;;;20.98;30.35;152553.75;5063660;28;20144;-68
2023/05/12 08:14:55;;;;;;;6.10;2.20;;;;;;;21.00;30.04;152558.91;5063878;28;20025;-67
2023/05/12 08:17:21;;;;;;;4.15;2.78;;;;;;;21.07;30.89;152574.44;5053836;28;20056;-68
2023/05/12 08:19:47;;;;;;;4.38;2.25;;;;;;;21.06;29.10;152573.09;5049486;28;20029;-69
2023/05/12 08:22:12;;;;;;;3.60;2.67;;;;;;;21.14;29.88;152593.78;5062913;28;20036;-73
2023/05/12 08:24:38;;;;;;;4.07;2.28;;;;;;;21.17;29.19;152600.28;5043483;28;20025;-72
2023/05/12 08:27:04;;;;;;;4.18;2.60;;;;;;;20.96;28.79;152547.28;5060099;28;20040;-75
2023/05/12 08:29:29;;;;;;;2.65;2.35;;;;;;;21.09;28.94;152580.91;5052504;28;20037;-73
2023/05/12 08:31:56;;;;;;;7.53;2.85;;;;;;;21.21;29.47;152611.88;5055985;28;20195;-73
2023/05/12 08:34:23;;;;;;;2.55;1.95;;;;;;;21.37;29.30;152651.94;5063706;28;20107;-71
2023/05/12 08:36:51;;;;;;;5.30;2.00;;;;;;;21.23;29.27;152614.47;5063485;28;20059;-72
2023/05/12 08:39:18;;;;;;;2.47;2.28;;;;;;;21.27;27.33;152626.09;5051349;28;20037;-74
2023/05/12 08:42:12;;;;;;;4.35;2.30;;;;;;;21.46;26.80;152673.94;5070612;28;20036;-73
2023/05/12 08:44:38;;;;;;;2.85;2.17;;;;;;;21.37;26.81;152651.94;5035403;28;20040;-75
2023/05/12 08:47:05;;;;;;;3.78;2.58;;;;;;;21.61;29.25;152711.47;5055980;28;20021;-76
2023/05/12 08:49:34;;;;;;;3.67;2.38;;;;;;;21.86;27.94;152773.50;5045259;28;20260;-74
2023/05/12 08:52:03;;;;;;;4.25;2.67;;;;;;;22.04;29.41;152818.75;5063288;28;20041;-72
2023/05/12 08:54:29;;;;;;;3.30;2.45;;;;;;;22.16;29.25;152848.47;5062467;28;20029;-73
2023/05/12 08:56:55;;;;;;;4.43;2.40;;;;;;;22.05;28.95;152822.63;5063280;28;20126;-72
2023/05/12 08:59:22;;;;;;;4.10;2.40;;;;;;;21.83;28.52;152767.06;5053457;28;20033;-74
2023/05/12 09:01:49;;;;;;;5.00;2.90;;;;;;;21.82;27.92;152764.47;5057467;28;20075;-74
2023/05/12 09:04:16;;;;;;;3.88;2.50;;;;;;;21.78;29.10;152754.13;5062761;28;20029;-73
2023/05/12 09:06:45;;;;;;;3.70;2.83;;;;;;;21.52;26.76;152688.16;5054523;28;20047;-73
2023/05/12 09:09:13;;;;;;;9.80;2.80;;;;;;;21.49;27.54;152681.69;5063665;28;20029;-74
2023/05/12 09:11:40;;;;;;;4.70;2.47;;;;;;;21.38;27.02;152654.53;5064896;28;20029;-74
2023/05/12 09:14:17;;;;;;;8.02;2.47;;;;;;;21.42;27.12;152663.59;5057484;28;20038;-73
2023/05/12 09:16:47;;;;;;;3.83;2.78;;;;;;;21.63;26.75;152715.34;5055458;28;20020;-74
2023/05/12 09:19:19;;;;;;;3.95;2.50;;;;;;;21.54;27.12;152694.63;5065372;28;20032;-73
2023/05/12 09:21:45;;;;;;;7.07;2.80;;;;;;;21.46;26.61;152672.63;5065072;28;20025;-75
2023/05/12 09:24:10;;;;;;;5.70;2.80;;;;;;;21.43;27.08;152664.88;5047488;28;20258;-75
2023/05/12 09:26:51;;;;;;;4.72;2.85;;;;;;;21.09;26.76;152580.91;5037849;28;20043;-73
2023/05/12 09:29:17;;;;;;;6.55;3.10;;;;;;;21.02;27.00;152562.78;5062996;28;20032;-73
2023/05/12 09:31:53;;;;;;;6.47;2.88;;;;;;;21.21;27.59;152611.88;5060419;28;20265;-73
2023/05/12 09:34:25;;;;;;;5.68;3.40;;;;;;;21.21;29.44;152611.88;5062844;28;20029;-74
2023/05/12 09:37:00;;;;;;;2.97;2.67;;;;;;;21.32;28.13;152637.72;5041734;28;20045;-74
2023/05/12 09:39:26;;;;;;;7.43;2.95;;;;;;;21.20;27.61;152609.28;5064334;28;20384;-75
2023/05/12 09:41:52;;;;;;;4.90;2.75;;;;;;;21.07;28.06;152575.72;5068434;28;20039;-74
2023/05/12 09:44:18;;;;;;;3.75;2.65;;;;;;;21.27;29.02;152626.09;5052281;28;20037;-73
2023/05/12 09:46:45;;;;;;;7.30;2.80;;;;;;;21.21;28.46;152610.63;5061097;28;20051;-73
2023/05/12 09:49:10;;;;;;;4.28;3.10;;;;;;;21.12;27.58;152588.66;5061596;28;20217;-73
2023/05/12 09:51:36;;;;;;;4.07;2.63;;;;;;;21.09;28.99;152579.59;5062197;28;20028;-73
2023/05/12 09:54:03;;;;;;;3.60;2.60;;;;;;;21.19;29.25;152605.41;5047510;28;20421;-75
2023/05/12 09:56:31;;;;;;;4.45;2.80;;;;;;;21.29;29.58;152631.28;5034684;28;20276;-75
2023/05/12 09:58:57;;;;;;;7.85;3.10;;;;;;;21.28;29.35;152627.44;5056660;28;20044;-73
2023/05/12 10:01:24;;;;;;;3.90;2.88;;;;;;;21.25;28.69;152619.63;5051530;28;20028;-71
2023/05/12 10:03:57;;;;;;;5.13;2.90;;;;;;;21.42;28.41;152662.28;5063122;28;20096;-71
2023/05/12 10:06:36;;;;;;;3.72;2.70;;;;;;;21.45;27.88;152671.34;5061827;28;20037;-75
2023/05/12 10:09:04;;;;;;;6.55;3.03;;;;;;;21.41;27.93;152661.00;5062454;28;20032;-68
2023/05/12 10:11:31;;;;;;;4.40;2.80;;;;;;;21.57;27.96;152701.13;5061201;28;20054;-67
2023/05/12 10:13:57;;;;;;;5.68;2.83;;;;;;;21.54;27.60;152694.63;5074924;28;20272;-66
2023/05/12 10:16:25;;;;;;;4.82;2.47;;;;;;;21.58;27.73;152703.72;5060475;28;20028;-67
2023/05/12 10:18:51;;;;;;;3.38;2.35;;;;;;;21.18;26.81;152604.13;5024356;28;20057;-65
2023/05/12 10:21:18;;;;;;;2.97;2.67;;;;;;;21.54;27.91;152693.38;5058465;28;20082;-67
2023/05/12 10:23:44;;;;;;;6.32;2.72;;;;;;;21.63;27.74;152715.34;5062052;28;20047;-72
2023/05/12 10:26:10;;;;;;;7.05;2.70;;;;;;;21.60;27.37;152708.88;5061633;28;20017;-68
2023/05/12 10:28:36;;;;;;;4.80;2.60;;;;;;;21.15;27.38;152596.41;5059172;28;20049;-66
2023/05/12 10:31:05;;;;;;;6.25;3.08;;;;;;;21.20;28.28;152608.00;5047447;28;20067;-68
2023/05/12 10:33:31;;;;;;;7.40;4.20;;;;;;;21.41;30.22;152659.72;5061680;28;20043;-70
2023/05/12 10:35:56;;;;;;;7.60;3.38;;;;;;;21.43;28.98;152666.16;5061197;28;20025;-68
2023/05/12 10:38:22;;;;;;;6.55;2.92;;;;;;;21.35;29.40;152646.78;5053102;28;20051;-66
2023/05/12 10:40:52;;;;;;;3.20;2.90;;;;;;;21.42;28.94;152662.28;5066787;28;20079;-66
2023/05/12 10:43:24;;;;;;;5.22;2.97;;;;;;;21.32;28.88;152637.72;5061638;28;20021;-67
2023/05/12 10:46:14;;;;;;;22.98;18.42;;;;;;;21.52;30.23;152688.16;5053392;28;20052;-61
2023/05/12 10:48:52;;;;;;;5.43;2.83;;;;;;;21.55;27.42;152695.97;5061855;28;20070;-64
2023/05/12 10:51:21;;;;;;;4.65;3.70;;;;;;;21.59;28.03;152706.31;5052797;28;20033;-64
2023/05/12 10:53:50;;;;;;;6.43;3.72;;;;;;;21.60;29.49;152707.59;5061335;28;20070;-63
2023/05/12 10:56:25;;;;;;;39.88;19.98;;;;;;;21.35;29.35;152645.50;5060942;28;20079;-63
2023/05/12 10:59:17;;;;;;;3.05;2.60;;;;;;;21.47;27.88;152676.50;5061848;28;20033;-62
2023/05/12 11:02:13;;;;;;;8.85;3.47;;;;;;;21.57;29.38;152699.84;5062036;28;20029;-63
2023/05/12 11:04:54;;;;;;;23.85;13.23;;;;;;;21.46;28.66;152672.63;5061667;28;20440;-63
2023/05/12 11:07:25;;;;;;;11.35;4.53;;;;;;;21.63;30.30;152715.34;5061981;28;20040;-62
2023/05/12 11:09:52;;;;;;;9.43;3.10;;;;;;;21.59;28.63;152704.97;5044617;28;20207;-62
2023/05/12 11:12:17;;;;;;;10.25;3.28;;;;;;;21.45;27.18;152670.03;5062267;28;20051;-69
2023/05/12 11:14:45;;;;;;;7.82;3.80;;;;;;;21.46;27.38;152673.94;5050599;28;20199;-68
2023/05/12 11:17:10;;;;;;;4.63;2.70;;;;;;;21.50;27.02;152682.97;5057359;28;20195;-69
2023/05/12 11:19:37;;;;;;;5.45;3.70;;;;;;;21.64;27.89;152717.94;5065427;28;20040;-69
2023/05/12 11:22:11;;;;;;;6.78;2.50;;;;;;;21.46;26.45;152672.63;5065468;28;20037;-61